createdAt,value
2023-08-25T00:01:57.216Z,12.93
2023-08-25T00:04:24.175Z,15.25
2023-08-25T00:06:51.004Z,14.60
2023-08-25T00:09:17.861Z,12.32
2023-08-25T00:11:44.745Z,12.73
2023-08-25T00:14:11.625Z,13.23
2023-08-25T00:16:38.489Z,12.90
2023-08-25T00:19:06.588Z,12.85
2023-08-25T00:21:33.479Z,13.00
2023-08-25T00:24:00.630Z,13.57
2023-08-25T00:26:27.529Z,14.43
2023-08-25T00:28:54.512Z,13.35
2023-08-25T00:31:21.445Z,14.45
2023-08-25T00:33:51.747Z,14.52
2023-08-25T00:36:18.850Z,14.00
2023-08-25T00:38:45.852Z,14.25
2023-08-25T00:41:12.716Z,14.82
2023-08-25T00:43:40.821Z,14.02
2023-08-25T00:46:09.422Z,12.95
2023-08-25T00:48:37.876Z,13.63
2023-08-25T00:51:07.111Z,14.20
2023-08-25T00:53:37.078Z,13.02
2023-08-25T00:56:04.889Z,14.50
2023-08-25T00:58:32.162Z,13.88
2023-08-25T01:01:04.427Z,13.38
2023-08-25T01:03:31.614Z,12.52
2023-08-25T01:05:59.327Z,15.38
2023-08-25T01:08:26.654Z,18.88
2023-08-25T01:11:15.601Z,17.42
2023-08-25T01:14:23.337Z,21.15
2023-08-25T01:17:02.440Z,21.98
2023-08-25T01:20:00.341Z,18.98
2023-08-25T01:22:47.177Z,16.85
2023-08-25T01:25:31.302Z,20.35
2023-08-25T01:28:04.964Z,17.42
2023-08-25T01:30:35.952Z,18.30
2023-08-25T01:33:05.534Z,19.02
2023-08-25T01:35:57.393Z,16.23
2023-08-25T01:38:44.372Z,21.10
2023-08-25T01:41:23.361Z,20.92
2023-08-25T01:43:54.636Z,18.35
2023-08-25T01:46:23.490Z,27.35
2023-08-25T01:48:54.691Z,24.35
2023-08-25T01:51:21.998Z,26.52
2023-08-25T01:53:55.204Z,23.95
2023-08-25T01:56:23.909Z,25.52
2023-08-25T01:58:52.168Z,24.42
2023-08-25T02:01:19.162Z,26.95
2023-08-25T02:03:46.193Z,26.05
2023-08-25T02:06:13.081Z,26.70
2023-08-25T02:08:43.405Z,28.65
2023-08-25T02:11:10.465Z,28.83
2023-08-25T02:13:37.433Z,29.42
2023-08-25T02:16:04.578Z,30.00
2023-08-25T02:18:31.679Z,29.10
2023-08-25T02:21:00.088Z,32.67
2023-08-25T02:23:27.062Z,30.65
2023-08-25T02:25:54.286Z,32.83
2023-08-25T02:28:21.931Z,32.10
2023-08-25T02:30:48.887Z,32.53
2023-08-25T02:33:17.762Z,30.67
2023-08-25T02:35:45.492Z,33.92
2023-08-25T02:38:12.790Z,33.42
2023-08-25T02:40:40.083Z,36.55
2023-08-25T02:43:08.814Z,34.90
2023-08-25T02:45:37.466Z,34.22
2023-08-25T02:48:05.412Z,35.05
2023-08-25T02:50:32.433Z,34.13
2023-08-25T02:52:59.331Z,33.88
2023-08-25T02:55:26.401Z,36.28
2023-08-25T02:57:54.107Z,38.80
2023-08-25T03:00:25.028Z,34.47
2023-08-25T03:02:53.281Z,34.85
2023-08-25T03:05:22.615Z,37.67
2023-08-25T03:07:54.547Z,38.85
2023-08-25T03:10:22.957Z,37.97
2023-08-25T03:12:50.919Z,36.55
2023-08-25T03:15:18.002Z,36.47
2023-08-25T03:17:45.071Z,46.63
2023-08-25T03:20:12.459Z,41.30
2023-08-25T03:22:39.579Z,40.05
2023-08-25T03:25:07.009Z,40.72
2023-08-25T03:27:35.799Z,38.70
2023-08-25T03:30:03.491Z,39.67
2023-08-25T03:32:31.599Z,45.35
2023-08-25T03:34:58.684Z,47.47
2023-08-25T03:37:26.485Z,40.53
2023-08-25T03:39:53.545Z,45.38
2023-08-25T03:42:21.057Z,42.08
2023-08-25T03:44:49.143Z,40.42
2023-08-25T03:47:16.093Z,40.30
2023-08-25T03:49:42.914Z,42.03
2023-08-25T03:52:10.082Z,41.40
2023-08-25T03:54:37.893Z,41.75
2023-08-25T03:57:07.842Z,40.08
2023-08-25T03:59:35.126Z,41.85
2023-08-25T04:02:04.787Z,41.22
2023-08-25T04:04:35.395Z,42.30
2023-08-25T04:07:02.964Z,44.97
2023-08-25T04:09:31.612Z,41.63
2023-08-25T04:11:58.553Z,41.45
2023-08-25T04:14:25.997Z,42.65
2023-08-25T04:16:53.641Z,42.00
2023-08-25T04:19:22.716Z,45.28
2023-08-25T04:21:51.141Z,43.50
2023-08-25T04:24:18.758Z,44.63
2023-08-25T04:26:46.083Z,41.55
2023-08-25T04:29:13.139Z,43.83
2023-08-25T04:31:41.058Z,42.13
2023-08-25T04:34:08.312Z,41.17
2023-08-25T04:36:37.776Z,39.25
2023-08-25T04:39:04.960Z,41.25
2023-08-25T04:41:32.273Z,43.97
2023-08-25T04:43:59.291Z,42.45
2023-08-25T04:46:29.763Z,43.08
2023-08-25T04:48:58.145Z,42.33
2023-08-25T04:51:25.456Z,40.28
2023-08-25T04:53:52.745Z,42.35
2023-08-25T04:56:20.077Z,42.63
2023-08-25T04:58:47.081Z,42.50
2023-08-25T05:01:15.306Z,41.17
2023-08-25T05:03:43.747Z,41.95
2023-08-25T05:06:10.951Z,43.35
2023-08-25T05:08:37.953Z,40.50
2023-08-25T05:11:05.096Z,39.40
2023-08-25T05:13:32.816Z,38.17
2023-08-25T05:15:59.959Z,40.70
2023-08-25T05:18:47.044Z,42.00
2023-08-25T05:21:16.408Z,40.50
2023-08-25T05:23:49.705Z,39.90
2023-08-25T05:26:17.466Z,42.55
2023-08-25T05:28:54.458Z,39.25
2023-08-25T05:31:21.456Z,39.67
2023-08-25T05:34:10.141Z,39.88
2023-08-25T05:36:47.696Z,40.70
2023-08-25T05:39:14.686Z,42.92
2023-08-25T05:41:41.761Z,38.60
2023-08-25T05:44:08.738Z,44.28
2023-08-25T05:46:35.766Z,39.38
2023-08-25T05:49:02.617Z,39.13
2023-08-25T05:51:29.932Z,40.15
2023-08-25T05:53:56.871Z,39.38
2023-08-25T05:56:25.933Z,38.40
2023-08-25T05:58:53.773Z,39.38
2023-08-25T06:01:21.465Z,39.20
2023-08-25T06:03:48.472Z,38.90
2023-08-25T06:06:15.566Z,41.88
2023-08-25T06:08:42.589Z,40.35
2023-08-25T06:11:09.621Z,38.35
2023-08-25T06:13:36.555Z,38.20
2023-08-25T06:16:04.224Z,40.15
2023-08-25T06:18:31.260Z,40.45
2023-08-25T06:20:58.266Z,40.72
2023-08-25T06:23:25.111Z,40.72
2023-08-25T06:25:52.039Z,39.63
2023-08-25T06:28:18.922Z,39.65
2023-08-25T06:30:53.017Z,38.35
2023-08-25T06:33:20.182Z,41.85
2023-08-25T06:35:47.208Z,43.50
2023-08-25T06:38:14.154Z,40.00
2023-08-25T06:40:41.175Z,38.83
2023-08-25T06:43:08.068Z,37.80
2023-08-25T06:45:35.450Z,40.65
2023-08-25T06:48:02.465Z,39.55
2023-08-25T06:50:29.397Z,40.42
2023-08-25T06:52:56.229Z,40.20
2023-08-25T06:55:25.042Z,40.15
2023-08-25T06:57:52.372Z,40.67
2023-08-25T07:00:20.058Z,42.40
2023-08-25T07:02:47.419Z,41.95
2023-08-25T07:05:14.631Z,38.25
2023-08-25T07:07:43.361Z,39.47
2023-08-25T07:10:16.928Z,42.05
2023-08-25T07:12:44.078Z,43.67
2023-08-25T07:15:11.715Z,41.83
2023-08-25T07:17:38.780Z,44.35
2023-08-25T07:20:06.537Z,40.28
2023-08-25T07:22:33.596Z,41.83
2023-08-25T07:25:00.586Z,40.05
2023-08-25T07:27:27.700Z,42.17
2023-08-25T07:29:54.762Z,41.83
2023-08-25T07:32:23.337Z,45.95
2023-08-25T07:34:51.703Z,40.58
2023-08-25T07:37:18.699Z,40.30
2023-08-25T07:39:54.770Z,40.25
2023-08-25T07:42:22.427Z,44.03
2023-08-25T07:44:50.312Z,44.75
2023-08-25T07:47:17.301Z,41.60
2023-08-25T07:49:44.239Z,44.70
2023-08-25T07:52:11.458Z,44.67
2023-08-25T07:54:39.202Z,42.25
2023-08-25T07:57:06.468Z,43.60
2023-08-25T07:59:33.558Z,41.55
2023-08-25T08:02:00.486Z,43.35
2023-08-25T08:04:28.039Z,44.55
2023-08-25T08:06:56.254Z,44.35
2023-08-25T08:09:23.159Z,43.22
2023-08-25T08:11:50.130Z,42.47
2023-08-25T08:14:17.153Z,41.75
2023-08-25T08:16:44.358Z,41.20
2023-08-25T08:19:11.774Z,38.10
2023-08-25T08:21:38.688Z,36.28
2023-08-25T08:24:06.001Z,39.50
2023-08-25T08:26:33.205Z,38.00
2023-08-25T08:29:00.178Z,37.65
2023-08-25T08:31:27.906Z,34.92
2023-08-25T08:33:54.842Z,41.17
2023-08-25T08:36:21.728Z,36.50
2023-08-25T08:38:48.633Z,39.42
2023-08-25T08:41:17.942Z,37.75
2023-08-25T08:43:47.067Z,37.50
2023-08-25T08:46:18.561Z,37.70
2023-08-25T08:48:47.580Z,38.47
2023-08-25T08:51:18.913Z,40.03
2023-08-25T08:53:48.932Z,42.95
2023-08-25T08:56:17.600Z,45.63
2023-08-25T08:58:44.573Z,44.28
2023-08-25T09:01:11.833Z,47.38
2023-08-25T09:03:40.702Z,46.42
2023-08-25T09:06:07.798Z,44.97
2023-08-25T09:08:38.025Z,45.25
2023-08-25T09:11:06.492Z,45.28
2023-08-25T09:13:35.144Z,45.08
2023-08-25T09:16:15.825Z,45.80
2023-08-25T09:18:43.009Z,45.42
2023-08-25T09:21:26.757Z,44.60
2023-08-25T09:23:57.303Z,42.85
2023-08-25T09:26:25.247Z,46.70
2023-08-25T09:28:59.101Z,43.60
2023-08-25T09:31:28.704Z,40.70
2023-08-25T09:34:05.006Z,44.13
2023-08-25T09:36:32.895Z,40.22
2023-08-25T09:39:07.318Z,42.17
2023-08-25T09:41:35.300Z,44.13
2023-08-25T09:44:04.083Z,42.88
2023-08-25T09:46:33.934Z,41.38
2023-08-25T09:49:09.022Z,45.35
2023-08-25T09:51:48.383Z,44.80
2023-08-25T09:54:20.297Z,43.80
2023-08-25T09:56:48.438Z,42.55
2023-08-25T09:59:16.404Z,41.80
2023-08-25T10:01:46.684Z,43.40
2023-08-25T10:04:14.526Z,42.88
2023-08-25T10:06:42.346Z,45.58
2023-08-25T10:09:10.141Z,40.80
2023-08-25T10:11:44.584Z,40.42
2023-08-25T10:14:13.990Z,42.55
2023-08-25T10:16:52.971Z,36.38
2023-08-25T10:19:31.401Z,40.90
2023-08-25T10:22:02.889Z,36.58
2023-08-25T10:24:35.693Z,38.05
2023-08-25T10:27:03.459Z,38.08
2023-08-25T10:29:33.479Z,38.70
2023-08-25T10:32:04.114Z,35.97
2023-08-25T10:34:37.889Z,37.05
2023-08-25T10:37:11.251Z,36.10
2023-08-25T10:39:54.009Z,38.55
2023-08-25T10:42:31.506Z,38.63
2023-08-25T10:45:05.544Z,32.38
2023-08-25T10:47:32.662Z,35.45
2023-08-25T10:50:05.120Z,34.13
2023-08-25T10:52:34.005Z,37.03
2023-08-25T10:55:30.176Z,40.08
2023-08-25T10:58:06.266Z,35.97
2023-08-25T11:00:37.910Z,33.13
2023-08-25T11:03:06.128Z,40.17
2023-08-25T11:05:35.902Z,37.85
2023-08-25T11:08:05.108Z,39.15
2023-08-25T11:10:35.460Z,38.97
2023-08-25T11:13:10.925Z,38.47
2023-08-25T11:15:41.544Z,37.53
2023-08-25T11:18:09.821Z,37.13
2023-08-25T11:20:45.946Z,36.00
2023-08-25T11:23:20.878Z,36.53
2023-08-25T11:25:48.381Z,30.88
2023-08-25T11:28:15.356Z,27.40
2023-08-25T11:30:42.452Z,27.88
2023-08-25T11:33:10.241Z,26.45
2023-08-25T11:35:37.395Z,23.88
2023-08-25T11:38:04.549Z,24.67
2023-08-25T11:40:31.601Z,24.73
2023-08-25T11:42:58.689Z,24.27
2023-08-25T11:45:32.420Z,21.05
2023-08-25T11:47:59.778Z,21.80
2023-08-25T11:50:27.389Z,19.15
2023-08-25T11:52:59.778Z,20.13
2023-08-25T11:55:34.393Z,20.10
2023-08-25T11:58:08.806Z,17.92
2023-08-25T12:00:39.754Z,19.73
2023-08-25T12:03:14.264Z,17.98
2023-08-25T12:05:41.324Z,18.90
2023-08-25T12:08:08.401Z,15.82
2023-08-25T12:10:36.681Z,18.70
2023-08-25T12:13:03.934Z,17.23
2023-08-25T12:15:46.496Z,15.85
2023-08-25T12:18:14.302Z,15.13
2023-08-25T12:20:45.900Z,18.90
2023-08-25T12:23:12.926Z,19.17
2023-08-25T12:25:43.472Z,22.20
2023-08-25T12:28:12.074Z,26.77
2023-08-25T12:30:39.266Z,28.70
2023-08-25T12:33:07.236Z,29.30
2023-08-25T12:35:35.144Z,28.75
2023-08-25T12:38:02.172Z,34.20
2023-08-25T12:40:29.497Z,39.05
2023-08-25T12:42:56.866Z,37.03
2023-08-25T12:45:25.043Z,38.03
2023-08-25T12:47:53.544Z,41.83
2023-08-25T12:50:20.948Z,43.58
2023-08-25T12:52:47.887Z,39.78
2023-08-25T12:55:21.252Z,41.45
2023-08-25T12:57:54.120Z,37.97
2023-08-25T13:00:21.800Z,40.15
2023-08-25T13:02:51.306Z,39.30
2023-08-25T13:05:20.371Z,39.25
2023-08-25T13:07:47.444Z,35.90
2023-08-25T13:10:14.319Z,43.22
2023-08-25T13:12:41.226Z,38.05
2023-08-25T13:15:09.201Z,43.67
2023-08-25T13:17:36.159Z,43.08
2023-08-25T13:20:04.200Z,41.38
2023-08-25T13:22:31.212Z,42.15
2023-08-25T13:24:58.279Z,39.33
2023-08-25T13:27:25.271Z,39.83
2023-08-25T13:29:52.166Z,40.63
2023-08-25T13:32:19.231Z,42.33
2023-08-25T13:34:46.193Z,42.80
2023-08-25T13:37:13.369Z,41.45
2023-08-25T13:39:42.131Z,40.85
2023-08-25T13:42:09.596Z,44.25
2023-08-25T13:44:39.893Z,41.33
2023-08-25T13:47:10.625Z,42.35
2023-08-25T13:49:39.843Z,43.08
2023-08-25T13:52:07.048Z,37.75
2023-08-25T13:54:34.530Z,42.50
2023-08-25T13:57:02.192Z,35.05
2023-08-25T13:59:29.697Z,34.28
2023-08-25T14:01:56.710Z,33.08
2023-08-25T14:04:23.913Z,31.25
2023-08-25T14:06:50.918Z,31.55
2023-08-25T14:09:18.202Z,29.60
2023-08-25T14:11:45.069Z,31.52
2023-08-25T14:14:12.729Z,29.33
2023-08-25T14:16:40.351Z,31.42
2023-08-25T14:19:08.086Z,30.23
2023-08-25T14:21:35.253Z,29.33
2023-08-25T14:24:02.314Z,26.13
2023-08-25T14:26:29.344Z,27.52
2023-08-25T14:28:56.373Z,25.27
2023-08-25T14:31:23.313Z,26.38
2023-08-25T14:33:50.278Z,27.23
2023-08-25T14:36:17.199Z,26.83
2023-08-25T14:38:44.453Z,24.38
2023-08-25T14:41:12.125Z,24.10
2023-08-25T14:43:39.245Z,25.00
2023-08-25T14:46:06.212Z,22.70
2023-08-25T14:48:33.233Z,24.42
2023-08-25T14:51:03.262Z,23.90
2023-08-25T14:53:30.408Z,19.02
2023-08-25T14:55:57.876Z,20.25
2023-08-25T14:58:25.086Z,19.80
2023-08-25T15:00:56.252Z,17.02
2023-08-25T15:03:24.990Z,17.40
2023-08-25T15:06:00.437Z,19.05
2023-08-25T15:08:29.576Z,17.23
2023-08-25T15:10:57.708Z,18.88
2023-08-25T15:13:26.052Z,18.50
2023-08-25T15:15:53.528Z,17.42
2023-08-25T15:18:20.929Z,18.85
2023-08-25T15:21:04.350Z,17.95
2023-08-25T15:23:32.646Z,19.58
2023-08-25T15:26:00.550Z,20.92
2023-08-25T15:28:30.446Z,18.48
2023-08-25T15:31:10.405Z,18.35
2023-08-25T15:33:41.678Z,18.73
2023-08-25T15:36:10.550Z,15.18
2023-08-25T15:38:37.672Z,18.08
2023-08-25T15:41:08.524Z,16.98
2023-08-25T15:43:36.754Z,18.75
2023-08-25T15:46:04.356Z,13.98
2023-08-25T15:48:31.458Z,14.50
2023-08-25T15:50:58.518Z,15.18
2023-08-25T15:53:29.108Z,19.10
2023-08-25T15:55:56.148Z,15.35
2023-08-25T15:58:23.437Z,14.18
2023-08-25T16:00:57.028Z,21.27
2023-08-25T16:03:24.193Z,16.80
2023-08-25T16:05:59.863Z,17.27
2023-08-25T16:08:28.259Z,13.63
2023-08-25T16:11:05.746Z,16.88
2023-08-25T16:13:35.509Z,13.75
2023-08-25T16:16:04.419Z,15.10
2023-08-25T16:18:32.777Z,13.50
2023-08-25T16:21:05.521Z,14.50
2023-08-25T16:23:36.165Z,13.73
2023-08-25T16:26:04.352Z,14.23
2023-08-25T16:28:33.116Z,17.02
2023-08-25T16:31:05.377Z,14.57
2023-08-25T16:33:35.152Z,12.45
2023-08-25T16:36:04.527Z,12.93
2023-08-25T16:38:33.418Z,11.13
2023-08-25T16:41:00.303Z,15.13
2023-08-25T16:43:27.232Z,11.93
2023-08-25T16:45:54.166Z,13.93
2023-08-25T16:48:23.790Z,11.05
2023-08-25T16:50:51.935Z,13.27
2023-08-25T16:53:20.674Z,10.38
2023-08-25T16:55:47.604Z,12.15
2023-08-25T16:58:15.152Z,13.20
2023-08-25T17:00:43.101Z,12.95
2023-08-25T17:03:10.459Z,12.75
2023-08-25T17:05:37.436Z,12.50
2023-08-25T17:08:05.882Z,8.90
2023-08-25T17:10:33.636Z,12.40
2023-08-25T17:13:00.630Z,12.63
2023-08-25T17:15:37.360Z,10.40
2023-08-25T17:18:05.470Z,10.88
2023-08-25T17:20:32.585Z,11.90
2023-08-25T17:22:59.817Z,9.57
2023-08-25T17:25:26.813Z,12.50
2023-08-25T17:27:54.811Z,10.55
2023-08-25T17:30:22.171Z,10.60
2023-08-25T17:32:49.075Z,11.23
2023-08-25T17:35:16.363Z,9.65
2023-08-25T17:37:43.299Z,8.30
2023-08-25T17:40:10.922Z,10.32
2023-08-25T17:42:37.857Z,9.48
2023-08-25T17:45:05.585Z,10.70
2023-08-25T17:47:32.608Z,10.13
2023-08-25T17:50:02.958Z,9.07
2023-08-25T17:52:30.053Z,13.05
2023-08-25T17:54:56.981Z,8.15
2023-08-25T17:57:23.910Z,8.55
2023-08-25T17:59:51.215Z,9.18
2023-08-25T18:02:18.333Z,8.68
2023-08-25T18:04:45.257Z,9.13
2023-08-25T18:07:13.045Z,7.35
2023-08-25T18:09:41.703Z,9.43
2023-08-25T18:12:09.769Z,6.95
2023-08-25T18:14:36.757Z,11.20
2023-08-25T18:17:04.477Z,6.57
2023-08-25T18:19:31.797Z,5.60
2023-08-25T18:21:58.734Z,6.97
2023-08-25T18:24:25.660Z,7.60
2023-08-25T18:26:52.780Z,7.50
2023-08-25T18:29:19.689Z,6.63
2023-08-25T18:31:46.602Z,6.40
2023-08-25T18:34:14.477Z,6.65
2023-08-25T18:36:41.505Z,6.55
2023-08-25T18:39:08.426Z,6.60
2023-08-25T18:41:35.456Z,7.35
2023-08-25T18:44:02.645Z,6.65
2023-08-25T18:46:29.638Z,20.08
2023-08-25T18:48:56.646Z,8.77
2023-08-25T18:51:25.902Z,6.82
2023-08-25T18:53:54.017Z,7.05
2023-08-25T18:56:22.168Z,7.32
2023-08-25T18:58:49.502Z,7.95
2023-08-25T19:01:17.236Z,9.13
2023-08-25T19:03:46.557Z,8.68
2023-08-25T19:06:13.929Z,9.95
2023-08-25T19:08:40.948Z,9.48
2023-08-25T19:11:10.399Z,6.40
2023-08-25T19:13:37.363Z,10.20
2023-08-25T19:16:05.661Z,7.90
2023-08-25T19:18:32.621Z,9.23
2023-08-25T19:21:03.843Z,8.10
2023-08-25T19:23:34.151Z,8.65
2023-08-25T19:26:11.267Z,7.22
2023-08-25T19:28:42.603Z,10.55
2023-08-25T19:31:12.740Z,7.80
2023-08-25T19:33:39.786Z,8.68
2023-08-25T19:36:06.947Z,8.05
2023-08-25T19:38:33.780Z,5.70
2023-08-25T19:41:08.409Z,5.93
2023-08-25T19:43:37.603Z,6.28
2023-08-25T19:46:04.765Z,6.20
2023-08-25T19:48:33.564Z,6.28
2023-08-25T19:51:00.523Z,7.53
2023-08-25T19:53:27.404Z,5.18
2023-08-25T19:55:54.383Z,4.60
2023-08-25T19:58:22.311Z,5.97
2023-08-25T20:00:49.418Z,6.57
2023-08-25T20:03:18.418Z,4.32
2023-08-25T20:06:07.335Z,6.15
2023-08-25T20:08:37.845Z,4.85
2023-08-25T20:11:09.815Z,6.05
2023-08-25T20:13:39.974Z,5.63
2023-08-25T20:16:07.070Z,5.03
2023-08-25T20:18:34.414Z,5.13
2023-08-25T20:21:01.568Z,5.32
2023-08-25T20:23:28.778Z,5.22
2023-08-25T20:25:56.677Z,4.30
2023-08-25T20:28:23.867Z,5.53
2023-08-25T20:30:51.408Z,4.60
2023-08-25T20:33:18.845Z,5.78
2023-08-25T20:35:46.914Z,5.22
2023-08-25T20:38:15.401Z,4.70
2023-08-25T20:40:44.418Z,5.60
2023-08-25T20:43:14.266Z,5.60
2023-08-25T20:45:48.472Z,4.72
2023-08-25T20:48:16.947Z,3.58
2023-08-25T20:50:49.954Z,5.10
2023-08-25T20:53:16.924Z,5.57
2023-08-25T20:55:43.773Z,4.60
2023-08-25T20:58:10.687Z,5.03
2023-08-25T21:00:37.577Z,5.82
2023-08-25T21:03:04.870Z,5.07
2023-08-25T21:05:31.734Z,4.68
2023-08-25T21:07:58.633Z,3.40
2023-08-25T21:10:25.606Z,4.57
2023-08-25T21:12:52.530Z,3.80
2023-08-25T21:15:19.362Z,6.57
2023-08-25T21:17:46.252Z,5.43
2023-08-25T21:20:13.291Z,5.07
2023-08-25T21:22:40.208Z,4.75
2023-08-25T21:25:09.353Z,4.32
2023-08-25T21:27:36.258Z,2.95
2023-08-25T21:30:03.811Z,3.78
2023-08-25T21:32:30.777Z,5.47
2023-08-25T21:34:57.641Z,6.55
2023-08-25T21:37:24.572Z,2.95
2023-08-25T21:39:53.590Z,5.90
2023-08-25T21:42:20.450Z,4.47
2023-08-25T21:44:47.416Z,3.55
2023-08-25T21:47:15.779Z,5.47
2023-08-25T21:49:42.632Z,4.53
2023-08-25T21:52:09.501Z,3.60
2023-08-25T21:54:36.424Z,2.97
2023-08-25T21:57:03.487Z,3.70
2023-08-25T21:59:30.355Z,4.28
2023-08-25T22:01:57.253Z,3.80
2023-08-25T22:04:24.269Z,3.92
2023-08-25T22:06:51.415Z,4.82
2023-08-25T22:09:18.286Z,5.40
2023-08-25T22:11:45.315Z,3.88
2023-08-25T22:14:12.625Z,4.32
2023-08-25T22:16:40.231Z,4.10
2023-08-25T22:19:07.453Z,4.93
2023-08-25T22:21:34.746Z,5.13
2023-08-25T22:24:01.690Z,3.88
2023-08-25T22:26:28.558Z,4.57
2023-08-25T22:28:55.445Z,4.28
2023-08-25T22:31:22.628Z,5.13
2023-08-25T22:36:19.282Z,5.95
2023-08-25T22:38:46.251Z,3.90
2023-08-25T22:41:13.078Z,5.60
2023-08-25T22:43:39.891Z,3.13
2023-08-25T22:46:07.533Z,6.18
2023-08-25T22:48:34.488Z,3.83
2023-08-25T22:51:01.541Z,3.35
2023-08-25T22:53:28.537Z,5.07
2023-08-25T22:55:56.330Z,4.15
2023-08-25T22:58:24.056Z,2.40
2023-08-25T23:00:51.131Z,6.53
2023-08-25T23:03:18.358Z,3.97
2023-08-25T23:05:45.445Z,4.85
2023-08-25T23:08:12.495Z,4.47
2023-08-25T23:10:41.630Z,3.53
2023-08-25T23:13:09.209Z,3.95
2023-08-25T23:15:37.249Z,5.05
2023-08-25T23:18:05.103Z,4.82
2023-08-25T23:20:35.386Z,4.85
2023-08-25T23:23:02.340Z,5.30
2023-08-25T23:25:29.523Z,5.70
2023-08-25T23:27:56.562Z,5.20
2023-08-25T23:30:24.091Z,3.03
2023-08-25T23:32:51.053Z,4.78
2023-08-25T23:35:18.039Z,3.65
2023-08-25T23:37:44.991Z,4.80
2023-08-25T23:40:12.412Z,4.25
2023-08-25T23:42:39.271Z,4.10
2023-08-25T23:45:07.060Z,3.72
2023-08-25T23:47:34.091Z,4.05
2023-08-25T23:50:01.486Z,2.60
2023-08-25T23:52:28.454Z,4.22
2023-08-25T23:54:57.866Z,3.22
2023-08-25T23:57:25.265Z,6.15
2023-08-25T23:59:52.992Z,4.70
